createdAt,value
2023-07-18T00:00:43.750Z,6.80
2023-07-18T00:01:43.752Z,8.00
2023-07-18T00:02:43.757Z,7.60
2023-07-18T00:03:43.735Z,7.80
2023-07-18T00:04:43.711Z,8.50
2023-07-18T00:05:43.719Z,7.10
2023-07-18T00:06:43.673Z,8.10
2023-07-18T00:07:43.674Z,8.00
2023-07-18T00:08:43.644Z,6.70
2023-07-18T00:09:43.654Z,7.30
2023-07-18T00:10:43.776Z,8.10
2023-07-18T00:11:43.658Z,7.80
2023-07-18T00:12:43.634Z,7.30
2023-07-18T00:13:43.615Z,7.30
2023-07-18T00:14:43.615Z,8.00
2023-07-18T00:15:43.607Z,7.70
2023-07-18T00:16:43.618Z,6.80
2023-07-18T00:17:43.626Z,7.80
2023-07-18T00:18:43.543Z,8.60
2023-07-18T00:19:43.568Z,7.90
2023-07-18T00:20:43.557Z,6.60
2023-07-18T00:21:43.515Z,7.80
2023-07-18T00:22:43.611Z,7.10
2023-07-18T00:23:43.526Z,7.70
2023-07-18T00:24:43.511Z,7.40
2023-07-18T00:25:43.514Z,6.70
2023-07-18T00:26:43.469Z,7.20
2023-07-18T00:27:43.466Z,7.40
2023-07-18T00:28:43.482Z,8.00
2023-07-18T00:29:43.463Z,7.50
2023-07-18T00:30:43.475Z,6.80
2023-07-18T00:31:43.475Z,8.30
2023-07-18T00:32:43.550Z,7.40
2023-07-18T00:33:43.411Z,6.30
2023-07-18T00:34:43.395Z,7.70
2023-07-18T00:35:43.399Z,7.10
2023-07-18T00:36:43.361Z,7.30
2023-07-18T00:37:43.390Z,7.60
2023-07-18T00:38:43.367Z,7.30
2023-07-18T00:39:43.332Z,8.10
2023-07-18T00:40:43.333Z,7.80
2023-07-18T00:41:43.319Z,8.00
2023-07-18T00:42:43.303Z,6.20
2023-07-18T00:43:43.301Z,7.30
2023-07-18T00:44:43.281Z,6.60
2023-07-18T00:45:43.324Z,7.70
2023-07-18T00:46:43.295Z,7.90
2023-07-18T00:47:43.289Z,7.20
2023-07-18T00:48:43.261Z,7.50
2023-07-18T00:49:43.236Z,8.50
2023-07-18T00:50:43.243Z,8.80
2023-07-18T00:51:43.226Z,6.30
2023-07-18T00:52:43.211Z,7.20
2023-07-18T00:53:43.205Z,7.50
2023-07-18T00:54:43.174Z,6.60
2023-07-18T00:55:43.176Z,6.90
2023-07-18T00:56:43.164Z,6.80
2023-07-18T00:57:43.178Z,8.20
2023-07-18T00:58:43.204Z,7.40
2023-07-18T00:59:43.161Z,8.50
2023-07-18T01:00:43.138Z,6.90
2023-07-18T01:01:43.138Z,7.00
2023-07-18T01:02:43.277Z,7.40
2023-07-18T01:03:43.117Z,8.10
2023-07-18T01:04:43.088Z,6.70
2023-07-18T01:05:43.094Z,8.30
2023-07-18T01:06:43.095Z,7.40
2023-07-18T01:07:43.037Z,6.80
2023-07-18T01:08:43.973Z,7.60
2023-07-18T01:09:43.034Z,7.00
2023-07-18T01:10:43.032Z,6.20
2023-07-18T01:11:43.121Z,7.20
2023-07-18T01:12:43.010Z,6.70
2023-07-18T01:13:42.985Z,9.10
2023-07-18T01:14:42.973Z,9.40
2023-07-18T01:15:43.012Z,7.40
2023-07-18T01:16:42.984Z,6.60
2023-07-18T01:17:42.958Z,7.10
2023-07-18T01:18:42.959Z,7.50
2023-07-18T01:19:42.951Z,8.10
2023-07-18T01:20:42.917Z,7.10
2023-07-18T01:21:42.921Z,8.40
2023-07-18T01:22:42.916Z,6.80
2023-07-18T01:23:42.894Z,6.70
2023-07-18T01:24:42.878Z,7.40
2023-07-18T01:25:42.858Z,7.60
2023-07-18T01:26:42.857Z,6.80
2023-07-18T01:27:42.854Z,7.30
2023-07-18T01:28:42.852Z,6.90
2023-07-18T01:29:42.837Z,7.30
2023-07-18T01:30:42.819Z,6.50
2023-07-18T01:31:42.848Z,6.70
2023-07-18T01:32:42.891Z,6.50
2023-07-18T01:33:42.790Z,6.50
2023-07-18T01:34:42.759Z,6.80
2023-07-18T01:35:42.762Z,7.00
2023-07-18T01:36:42.768Z,7.80
2023-07-18T01:37:42.726Z,7.20
2023-07-18T01:38:42.735Z,6.90
2023-07-18T01:39:43.506Z,6.70
2023-07-18T01:40:42.691Z,7.30
2023-07-18T01:41:42.708Z,7.20
2023-07-18T01:42:42.707Z,8.30
2023-07-18T01:43:42.719Z,8.30
2023-07-18T01:44:42.719Z,6.50
2023-07-18T01:45:42.662Z,7.30
2023-07-18T01:46:42.692Z,7.00
2023-07-18T01:47:42.672Z,7.10
2023-07-18T01:48:42.639Z,7.40
2023-07-18T01:49:42.602Z,6.10
2023-07-18T01:50:42.593Z,7.70
2023-07-18T01:51:42.600Z,7.20
2023-07-18T01:52:42.596Z,6.90
2023-07-18T01:53:42.573Z,7.20
2023-07-18T01:54:42.575Z,6.40
2023-07-18T01:55:42.538Z,6.60
2023-07-18T01:56:42.537Z,6.40
2023-07-18T01:57:42.531Z,6.20
2023-07-18T01:58:42.539Z,6.90
2023-07-18T01:59:42.514Z,6.60
2023-07-18T02:00:42.532Z,6.80
2023-07-18T02:01:42.474Z,7.30
2023-07-18T02:02:42.672Z,6.70
2023-07-18T02:03:42.475Z,7.30
2023-07-18T02:04:42.446Z,8.80
2023-07-18T02:05:42.447Z,7.20
2023-07-18T02:06:42.450Z,7.80
2023-07-18T02:07:42.411Z,6.00
2023-07-18T02:08:42.412Z,7.10
2023-07-18T02:09:42.411Z,5.90
2023-07-18T02:10:42.421Z,6.70
2023-07-18T02:11:42.381Z,6.50
2023-07-18T02:12:42.377Z,6.70
2023-07-18T02:13:42.361Z,8.00
2023-07-18T02:14:42.347Z,6.50
2023-07-18T02:15:42.343Z,6.80
2023-07-18T02:16:42.400Z,7.20
2023-07-18T02:17:42.390Z,6.50
2023-07-18T02:18:42.325Z,6.90
2023-07-18T02:19:42.288Z,6.60
2023-07-18T02:20:42.291Z,6.30
2023-07-18T02:21:42.307Z,7.30
2023-07-18T02:22:42.415Z,6.60
2023-07-18T02:23:42.276Z,6.80
2023-07-18T02:24:42.262Z,7.20
2023-07-18T02:25:42.246Z,7.40
2023-07-18T02:26:42.226Z,6.80
2023-07-18T02:27:42.316Z,6.80
2023-07-18T02:28:42.227Z,6.60
2023-07-18T02:29:42.215Z,6.50
2023-07-18T02:30:42.251Z,7.00
2023-07-18T02:31:42.182Z,6.70
2023-07-18T02:32:42.210Z,6.70
2023-07-18T02:33:42.185Z,7.30
2023-07-18T02:34:42.162Z,6.40
2023-07-18T02:35:42.137Z,7.40
2023-07-18T02:36:42.133Z,6.30
2023-07-18T02:37:42.163Z,6.90
2023-07-18T02:38:42.112Z,6.90
2023-07-18T02:39:42.098Z,6.50
2023-07-18T02:40:42.093Z,6.80
2023-07-18T02:41:42.065Z,6.70
2023-07-18T02:42:42.075Z,6.70
2023-07-18T02:43:42.084Z,6.80
2023-07-18T02:44:42.033Z,6.40
2023-07-18T02:45:42.039Z,6.30
2023-07-18T02:46:42.088Z,7.20
2023-07-18T02:47:42.091Z,6.80
2023-07-18T02:48:43.011Z,6.90
2023-07-18T02:49:41.990Z,9.00
2023-07-18T02:50:42.015Z,7.10
2023-07-18T02:51:41.968Z,6.60
2023-07-18T02:52:41.971Z,6.70
2023-07-18T02:53:41.986Z,7.40
2023-07-18T02:54:41.959Z,7.70
2023-07-18T02:55:41.924Z,6.40
2023-07-18T02:56:41.975Z,6.60
2023-07-18T02:57:41.907Z,6.80
2023-07-18T02:58:41.904Z,5.90
2023-07-18T02:59:41.896Z,7.20
2023-07-18T03:00:41.884Z,7.20
2023-07-18T03:01:41.920Z,6.70
2023-07-18T03:02:41.880Z,6.40
2023-07-18T03:03:41.876Z,7.50
2023-07-18T03:04:41.847Z,6.20
2023-07-18T03:05:41.850Z,7.60
2023-07-18T03:06:41.812Z,7.40
2023-07-18T03:07:41.799Z,6.80
2023-07-18T03:08:41.793Z,7.00
2023-07-18T03:09:41.773Z,6.70
2023-07-18T03:10:41.780Z,5.70
2023-07-18T03:11:41.768Z,6.90
2023-07-18T03:12:41.760Z,7.40
2023-07-18T03:13:41.733Z,7.10
2023-07-18T03:14:41.792Z,7.10
2023-07-18T03:15:41.739Z,6.30
2023-07-18T03:16:41.673Z,6.40
2023-07-18T03:17:41.755Z,6.40
2023-07-18T03:18:42.503Z,5.60
2023-07-18T03:19:41.673Z,6.40
2023-07-18T03:20:41.697Z,6.30
2023-07-18T03:21:41.651Z,6.40
2023-07-18T03:22:41.659Z,7.00
2023-07-18T03:23:41.589Z,13.50
2023-07-18T03:24:41.559Z,5.50
2023-07-18T03:25:41.604Z,7.30
2023-07-18T03:26:41.571Z,7.10
2023-07-18T03:27:41.537Z,6.70
2023-07-18T03:28:41.603Z,6.90
2023-07-18T03:29:41.584Z,6.60
2023-07-18T03:30:41.557Z,6.70
2023-07-18T03:31:41.590Z,6.60
2023-07-18T03:32:41.590Z,6.80
2023-07-18T03:33:41.527Z,6.70
2023-07-18T03:34:41.518Z,6.40
2023-07-18T03:35:41.483Z,6.30
2023-07-18T03:36:41.438Z,9.00
2023-07-18T03:37:41.498Z,8.30
2023-07-18T03:38:41.452Z,7.10
2023-07-18T03:39:41.415Z,7.80
2023-07-18T03:40:41.452Z,7.80
2023-07-18T03:41:41.463Z,6.90
2023-07-18T03:42:41.467Z,6.40
2023-07-18T03:43:41.437Z,7.80
2023-07-18T03:44:41.444Z,7.60
2023-07-18T03:45:41.385Z,6.70
2023-07-18T03:46:41.392Z,5.70
2023-07-18T03:47:41.461Z,6.70
2023-07-18T03:48:41.360Z,6.20
2023-07-18T03:49:41.315Z,7.30
2023-07-18T03:50:43.647Z,6.70
2023-07-18T03:51:41.290Z,6.80
2023-07-18T03:52:41.287Z,6.60
2023-07-18T03:53:41.293Z,6.30
2023-07-18T03:54:41.282Z,7.50
2023-07-18T03:55:41.248Z,7.30
2023-07-18T03:56:41.235Z,6.70
2023-07-18T03:57:41.237Z,6.20
2023-07-18T03:58:41.228Z,6.90
2023-07-18T03:59:41.212Z,6.50
2023-07-18T04:00:41.213Z,6.90
2023-07-18T04:01:41.221Z,7.70
2023-07-18T04:02:42.581Z,6.30
2023-07-18T04:03:41.184Z,7.90
2023-07-18T04:04:41.161Z,8.10
2023-07-18T04:05:41.169Z,6.40
2023-07-18T04:06:41.127Z,6.90
2023-07-18T04:07:41.118Z,7.80
2023-07-18T04:08:42.693Z,7.50
2023-07-18T04:09:41.116Z,6.90
2023-07-18T04:10:41.111Z,6.00
2023-07-18T04:11:41.104Z,7.20
2023-07-18T04:12:41.074Z,7.30
2023-07-18T04:13:41.054Z,6.60
2023-07-18T04:14:41.072Z,6.90
2023-07-18T04:15:41.055Z,6.40
2023-07-18T04:16:41.065Z,6.50
2023-07-18T04:17:41.090Z,7.20
2023-07-18T04:18:40.998Z,8.20
2023-07-18T04:19:41.002Z,6.80
2023-07-18T04:20:40.999Z,7.20
2023-07-18T04:21:40.963Z,8.00
2023-07-18T04:22:41.015Z,6.50
2023-07-18T04:23:40.982Z,7.40
2023-07-18T04:24:40.947Z,9.00
2023-07-18T04:25:40.928Z,7.90
2023-07-18T04:26:40.917Z,8.20
2023-07-18T04:27:40.937Z,8.30
2023-07-18T04:28:40.915Z,6.30
2023-07-18T04:29:40.905Z,8.10
2023-07-18T04:30:40.896Z,8.20
2023-07-18T04:31:40.911Z,7.00
2023-07-18T04:32:40.901Z,7.40
2023-07-18T04:33:40.889Z,8.10
2023-07-18T04:34:40.843Z,8.50
2023-07-18T04:35:40.849Z,6.90
2023-07-18T04:36:40.854Z,6.00
2023-07-18T04:37:40.827Z,7.90
2023-07-18T04:38:40.806Z,8.00
2023-07-18T04:39:40.813Z,8.20
2023-07-18T04:40:40.779Z,7.80
2023-07-18T04:41:53.733Z,6.90
2023-07-18T04:42:40.771Z,7.80
2023-07-18T04:43:40.766Z,8.20
2023-07-18T04:44:40.750Z,7.80
2023-07-18T04:45:40.766Z,7.00
2023-07-18T04:46:40.857Z,7.40
2023-07-18T04:47:40.799Z,7.80
2023-07-18T04:48:40.726Z,7.00
2023-07-18T04:49:40.706Z,7.70
2023-07-18T04:50:40.684Z,7.20
2023-07-18T04:51:40.670Z,9.00
2023-07-18T04:52:40.654Z,6.50
2023-07-18T04:53:40.659Z,6.60
2023-07-18T04:54:40.674Z,7.40
2023-07-18T04:55:40.613Z,7.50
2023-07-18T04:56:40.614Z,6.30
2023-07-18T04:57:40.628Z,6.10
2023-07-18T04:58:40.589Z,7.20
2023-07-18T04:59:40.631Z,7.30
2023-07-18T05:00:40.583Z,8.10
2023-07-18T05:01:40.580Z,7.10
2023-07-18T05:02:40.591Z,5.80
2023-07-18T05:03:55.852Z,7.10
2023-07-18T05:04:40.567Z,7.80
2023-07-18T05:05:40.530Z,7.50
2023-07-18T05:06:40.550Z,8.10
2023-07-18T05:07:40.502Z,7.30
2023-07-18T05:08:40.485Z,7.10
2023-07-18T05:09:40.512Z,6.90
2023-07-18T05:10:40.508Z,7.80
2023-07-18T05:11:40.500Z,8.30
2023-07-18T05:12:40.468Z,7.80
2023-07-18T05:13:40.460Z,6.60
2023-07-18T05:14:40.426Z,7.40
2023-07-18T05:15:40.459Z,7.10
2023-07-18T05:16:40.401Z,8.80
2023-07-18T05:17:40.437Z,8.30
2023-07-18T05:18:40.413Z,8.30
2023-07-18T05:19:40.375Z,7.60
2023-07-18T05:20:40.375Z,7.70
2023-07-18T05:21:40.354Z,6.70
2023-07-18T05:22:40.425Z,7.50
2023-07-18T05:23:40.337Z,6.90
2023-07-18T05:24:40.390Z,8.20
2023-07-18T05:25:40.965Z,7.40
2023-07-18T05:26:40.293Z,7.50
2023-07-18T05:27:40.309Z,6.90
2023-07-18T05:28:40.369Z,7.40
2023-07-18T05:29:40.275Z,7.00
2023-07-18T05:30:40.284Z,8.30
2023-07-18T05:31:40.270Z,8.60
2023-07-18T05:32:40.264Z,8.20
2023-07-18T05:33:40.227Z,8.50
2023-07-18T05:34:40.232Z,7.40
2023-07-18T05:35:40.239Z,7.30
2023-07-18T05:36:40.223Z,7.90
2023-07-18T05:37:40.222Z,7.00
2023-07-18T05:38:40.176Z,7.90
2023-07-18T05:39:40.173Z,7.50
2023-07-18T05:40:40.185Z,8.30
2023-07-18T05:41:40.148Z,6.70
2023-07-18T05:42:40.152Z,6.90
2023-07-18T05:43:40.143Z,9.40
2023-07-18T05:44:40.129Z,7.90
2023-07-18T05:45:40.187Z,6.80
2023-07-18T05:46:41.295Z,7.90
2023-07-18T05:47:40.169Z,8.40
2023-07-18T05:48:41.022Z,8.30
2023-07-18T05:49:40.059Z,7.90
2023-07-18T05:50:40.145Z,6.90
2023-07-18T05:51:40.083Z,7.20
2023-07-18T05:52:41.034Z,8.50
2023-07-18T05:53:41.656Z,10.40
2023-07-18T05:54:41.076Z,9.00
2023-07-18T05:55:40.068Z,7.70
2023-07-18T05:56:40.001Z,8.70
2023-07-18T05:57:39.989Z,8.60
2023-07-18T05:58:40.006Z,7.80
2023-07-18T05:59:39.991Z,8.90
2023-07-18T06:00:39.998Z,8.20
2023-07-18T06:01:39.989Z,10.40
2023-07-18T06:02:39.968Z,13.60
2023-07-18T06:03:40.023Z,9.20
2023-07-18T06:04:40.544Z,8.90
2023-07-18T06:05:39.921Z,9.70
2023-07-18T06:06:39.901Z,8.50
2023-07-18T06:07:39.903Z,9.70
2023-07-18T06:08:40.545Z,11.90
2023-07-18T06:09:39.891Z,10.00
2023-07-18T06:10:39.899Z,11.20
2023-07-18T06:11:39.859Z,10.40
2023-07-18T06:12:39.866Z,8.30
2023-07-18T06:13:39.819Z,10.70
2023-07-18T06:14:39.810Z,10.10
2023-07-18T06:15:40.531Z,8.70
2023-07-18T06:16:39.824Z,8.70
2023-07-18T06:17:39.926Z,11.00
2023-07-18T06:18:39.833Z,7.90
2023-07-18T06:19:39.780Z,8.40
2023-07-18T06:20:40.559Z,11.00
2023-07-18T06:21:40.558Z,10.50
2023-07-18T06:22:39.800Z,11.20
2023-07-18T06:23:39.740Z,12.90
2023-07-18T06:24:39.766Z,9.30
2023-07-18T06:25:40.535Z,10.30
2023-07-18T06:26:39.726Z,11.10
2023-07-18T06:27:39.706Z,10.70
2023-07-18T06:28:39.711Z,10.50
2023-07-18T06:29:39.721Z,11.90
2023-07-18T06:30:39.682Z,10.70
2023-07-18T06:31:39.709Z,11.40
2023-07-18T06:32:39.621Z,11.20
2023-07-18T06:33:39.624Z,10.30
2023-07-18T06:34:39.621Z,9.60
2023-07-18T06:35:39.642Z,12.00
2023-07-18T06:36:39.696Z,12.90
2023-07-18T06:37:39.567Z,12.80
2023-07-18T06:38:39.596Z,11.90
2023-07-18T06:39:39.610Z,8.70
2023-07-18T06:40:39.544Z,9.20
2023-07-18T06:41:39.562Z,11.00
2023-07-18T06:42:39.517Z,12.70
2023-07-18T06:43:39.612Z,11.30
2023-07-18T06:44:39.510Z,11.10
2023-07-18T06:45:39.507Z,12.90
2023-07-18T06:46:41.135Z,13.70
2023-07-18T06:47:39.582Z,10.30
2023-07-18T06:48:39.555Z,13.60
2023-07-18T06:49:40.033Z,13.50
2023-07-18T06:50:39.463Z,14.00
2023-07-18T06:51:39.424Z,11.30
2023-07-18T06:52:39.444Z,14.00
2023-07-18T06:53:39.429Z,10.70
2023-07-18T06:54:39.426Z,16.00
2023-07-18T06:55:39.478Z,10.50
2023-07-18T06:56:40.047Z,13.50
2023-07-18T06:57:41.169Z,16.20
2023-07-18T06:58:39.413Z,14.80
2023-07-18T06:59:39.383Z,12.50
2023-07-18T07:00:39.381Z,14.70
2023-07-18T07:01:39.447Z,18.30
2023-07-18T07:02:39.375Z,11.70
2023-07-18T07:03:39.370Z,14.30
2023-07-18T07:04:39.291Z,11.30
2023-07-18T07:05:39.321Z,12.00
2023-07-18T07:06:39.360Z,13.70
2023-07-18T07:07:39.292Z,10.20
2023-07-18T07:08:39.285Z,14.30
2023-07-18T07:09:40.100Z,13.30
2023-07-18T07:10:39.319Z,14.90
2023-07-18T07:11:39.259Z,13.20
2023-07-18T07:12:39.291Z,11.30
2023-07-18T07:13:39.228Z,14.40
2023-07-18T07:14:39.208Z,15.10
2023-07-18T07:15:39.206Z,11.40
2023-07-18T07:16:39.259Z,12.80
2023-07-18T07:17:40.204Z,12.70
2023-07-18T07:18:39.166Z,16.60
2023-07-18T07:19:39.226Z,14.30
2023-07-18T07:20:39.145Z,14.90
2023-07-18T07:21:39.137Z,15.60
2023-07-18T07:22:39.144Z,14.40
2023-07-18T07:23:39.103Z,13.60
2023-07-18T07:24:39.111Z,16.50
2023-07-18T07:25:39.112Z,15.20
2023-07-18T07:26:39.216Z,12.10
2023-07-18T07:27:39.053Z,12.20
2023-07-18T07:28:39.055Z,13.30
2023-07-18T07:29:40.047Z,14.80
2023-07-18T07:30:40.110Z,12.50
2023-07-18T07:31:39.179Z,16.10
2023-07-18T07:32:39.086Z,11.10
2023-07-18T07:33:39.545Z,12.70
2023-07-18T07:34:42.215Z,12.70
2023-07-18T07:35:39.547Z,17.90
2023-07-18T07:36:41.075Z,15.60
2023-07-18T07:37:39.541Z,14.60
2023-07-18T07:38:39.070Z,12.50
2023-07-18T07:39:39.610Z,10.70
2023-07-18T07:40:38.945Z,10.90
2023-07-18T07:41:39.046Z,12.10
2023-07-18T07:42:39.237Z,13.70
2023-07-18T07:43:40.149Z,17.40
2023-07-18T07:44:38.922Z,11.30
2023-07-18T07:45:38.923Z,14.40
2023-07-18T07:46:38.879Z,14.30
2023-07-18T07:47:38.957Z,16.40
2023-07-18T07:48:38.853Z,13.70
2023-07-18T07:49:38.855Z,11.70
2023-07-18T07:50:38.884Z,13.00
2023-07-18T07:51:38.890Z,13.30
2023-07-18T07:52:38.794Z,12.00
2023-07-18T07:53:39.574Z,11.50
2023-07-18T07:54:39.580Z,15.20
2023-07-18T07:55:40.540Z,16.60
2023-07-18T07:56:38.803Z,12.00
2023-07-18T07:57:38.748Z,12.50
2023-07-18T07:58:38.754Z,15.80
2023-07-18T07:59:38.730Z,11.70
2023-07-18T08:00:39.569Z,12.50
2023-07-18T08:01:38.768Z,11.40
2023-07-18T08:02:38.795Z,15.10
2023-07-18T08:03:38.775Z,13.00
2023-07-18T08:04:39.898Z,13.30
2023-07-18T08:05:38.685Z,16.00
2023-07-18T08:06:39.561Z,13.20
2023-07-18T08:07:38.680Z,12.90
2023-07-18T08:08:38.713Z,12.20
2023-07-18T08:09:40.079Z,12.70
2023-07-18T08:10:38.700Z,12.10
2023-07-18T08:11:38.655Z,15.70
2023-07-18T08:12:38.675Z,19.40
2023-07-18T08:13:39.574Z,12.60
2023-07-18T08:14:40.599Z,17.40
2023-07-18T08:15:38.644Z,17.50
2023-07-18T08:16:38.622Z,12.60
2023-07-18T08:17:38.693Z,10.40
2023-07-18T08:18:38.645Z,11.10
2023-07-18T08:19:38.578Z,18.00
2023-07-18T08:20:39.069Z,14.80
2023-07-18T08:21:38.577Z,13.00
2023-07-18T08:22:38.593Z,10.20
2023-07-18T08:23:38.551Z,14.80
2023-07-18T08:24:39.090Z,14.70
2023-07-18T08:25:39.053Z,10.60
2023-07-18T08:26:39.064Z,13.50
2023-07-18T08:27:38.512Z,10.80
2023-07-18T08:28:38.474Z,14.60
2023-07-18T08:29:39.058Z,12.80
2023-07-18T08:30:38.461Z,12.20
2023-07-18T08:31:38.443Z,14.40
2023-07-18T08:32:38.495Z,13.30
2023-07-18T08:33:38.440Z,13.80
2023-07-18T08:34:38.387Z,12.70
2023-07-18T08:35:38.362Z,12.00
2023-07-18T08:36:38.383Z,12.50
2023-07-18T08:37:38.347Z,16.40
2023-07-18T08:38:38.340Z,14.30
2023-07-18T08:39:39.083Z,12.10
2023-07-18T08:40:38.314Z,12.00
2023-07-18T08:41:38.360Z,13.30
2023-07-18T08:42:39.063Z,10.50
2023-07-18T08:43:38.294Z,11.90
2023-07-18T08:44:38.291Z,14.10
2023-07-18T08:45:38.270Z,16.00
2023-07-18T08:46:38.315Z,14.50
2023-07-18T08:47:38.367Z,8.90
2023-07-18T08:48:39.056Z,13.00
2023-07-18T08:49:38.253Z,13.30
2023-07-18T08:50:38.254Z,13.20
2023-07-18T08:51:38.209Z,13.10
2023-07-18T08:52:38.374Z,11.80
2023-07-18T08:53:39.572Z,13.50
2023-07-18T08:54:38.263Z,11.80
2023-07-18T08:55:38.298Z,12.50
2023-07-18T08:56:38.178Z,10.90
2023-07-18T08:57:39.105Z,9.80
2023-07-18T08:58:38.209Z,15.10
2023-07-18T08:59:39.111Z,13.30
2023-07-18T09:00:38.205Z,9.70
2023-07-18T09:01:39.214Z,12.90
2023-07-18T09:02:38.197Z,11.40
2023-07-18T09:03:39.083Z,15.30
2023-07-18T09:04:38.151Z,14.30
2023-07-18T09:05:38.124Z,13.10
2023-07-18T09:06:38.604Z,15.40
2023-07-18T09:07:38.109Z,14.10
2023-07-18T09:08:39.077Z,11.70
2023-07-18T09:09:39.100Z,12.60
2023-07-18T09:10:38.014Z,15.30
2023-07-18T09:11:38.037Z,13.00
2023-07-18T09:12:37.981Z,12.30
2023-07-18T09:13:38.041Z,18.40
2023-07-18T09:14:37.993Z,13.80
2023-07-18T09:15:37.983Z,11.30
2023-07-18T09:16:38.023Z,12.80
2023-07-18T09:17:37.993Z,19.10
2023-07-18T09:18:37.968Z,13.70
2023-07-18T09:19:37.930Z,14.10
2023-07-18T09:20:37.954Z,11.80
2023-07-18T09:21:38.591Z,12.70
2023-07-18T09:22:37.960Z,17.60
2023-07-18T09:23:37.913Z,15.40
2023-07-18T09:24:38.602Z,11.30
2023-07-18T09:25:38.577Z,16.50
2023-07-18T09:26:38.572Z,12.40
2023-07-18T09:27:37.876Z,13.40
2023-07-18T09:28:37.904Z,13.10
2023-07-18T09:29:38.573Z,11.10
2023-07-18T09:30:37.879Z,13.40
2023-07-18T09:31:37.816Z,15.00
2023-07-18T09:32:37.825Z,10.60
2023-07-18T09:33:37.796Z,14.00
2023-07-18T09:34:37.828Z,11.30
2023-07-18T09:35:37.786Z,11.70
2023-07-18T09:36:37.836Z,17.30
2023-07-18T09:37:37.793Z,9.20
2023-07-18T09:38:37.720Z,10.20
2023-07-18T09:39:37.756Z,11.80
2023-07-18T09:40:39.578Z,12.60
2023-07-18T09:41:37.748Z,12.90
2023-07-18T09:43:37.676Z,13.30
2023-07-18T09:44:37.751Z,11.30
2023-07-18T09:45:37.673Z,11.50
2023-07-18T09:46:37.755Z,11.00
2023-07-18T09:47:37.726Z,9.70
2023-07-18T09:49:40.992Z,13.00
2023-07-18T09:50:37.620Z,12.60
2023-07-18T09:51:37.629Z,10.40
2023-07-18T09:52:37.600Z,10.60
2023-07-18T09:53:37.586Z,11.40
2023-07-18T09:54:37.592Z,12.00
2023-07-18T09:55:37.562Z,11.40
2023-07-18T09:56:37.632Z,11.70
2023-07-18T09:57:37.648Z,11.20
2023-07-18T09:58:37.546Z,10.80
2023-07-18T09:59:37.568Z,12.60
2023-07-18T10:00:37.563Z,9.40
2023-07-18T10:01:37.559Z,10.60
2023-07-18T10:02:37.519Z,12.10
2023-07-18T10:03:38.269Z,11.00
2023-07-18T10:04:37.497Z,11.00
2023-07-18T10:05:37.492Z,12.30
2023-07-18T10:06:37.451Z,9.20
2023-07-18T10:07:37.509Z,10.50
2023-07-18T10:08:37.545Z,10.50
2023-07-18T10:09:38.396Z,9.40
2023-07-18T10:10:37.426Z,26.60
2023-07-18T10:11:37.420Z,10.80
2023-07-18T10:12:37.459Z,11.20
2023-07-18T10:13:37.493Z,8.70
2023-07-18T10:14:37.392Z,10.60
2023-07-18T10:15:37.475Z,11.60
2023-07-18T10:16:37.414Z,11.40
2023-07-18T10:17:37.673Z,9.90
2023-07-18T10:18:37.370Z,8.80
2023-07-18T10:19:37.329Z,10.30
2023-07-18T10:20:38.428Z,11.00
2023-07-18T10:21:37.362Z,10.20
2023-07-18T10:22:37.412Z,11.00
2023-07-18T10:23:37.258Z,11.40
2023-07-18T10:24:37.328Z,9.30
2023-07-18T10:25:37.270Z,10.10
2023-07-18T10:26:38.095Z,9.60
2023-07-18T10:27:37.234Z,12.00
2023-07-18T10:28:38.182Z,11.30
2023-07-18T10:29:37.222Z,11.40
2023-07-18T10:30:38.120Z,11.70
2023-07-18T10:31:38.136Z,10.10
2023-07-18T10:32:37.267Z,9.60
2023-07-18T10:33:38.081Z,10.30
2023-07-18T10:34:37.165Z,11.00
2023-07-18T10:35:39.148Z,8.90
2023-07-18T10:36:37.232Z,8.90
2023-07-18T10:37:37.243Z,9.20
2023-07-18T10:38:37.218Z,10.60
2023-07-18T10:39:37.196Z,11.40
2023-07-18T10:40:37.640Z,9.60
2023-07-18T10:41:37.115Z,9.80
2023-07-18T10:42:37.135Z,9.70
2023-07-18T10:43:37.590Z,9.20
2023-07-18T10:44:37.122Z,9.70
2023-07-18T10:45:41.150Z,8.60
2023-07-18T10:46:37.105Z,9.70
2023-07-18T10:47:37.656Z,8.10
2023-07-18T10:48:38.125Z,10.40
2023-07-18T10:49:37.581Z,9.30
2023-07-18T10:50:37.089Z,8.40
2023-07-18T10:51:37.611Z,9.80
2023-07-18T10:52:36.998Z,11.20
2023-07-18T10:53:37.632Z,9.10
2023-07-18T10:54:37.044Z,10.00
2023-07-18T10:55:36.986Z,10.70
2023-07-18T10:56:37.015Z,10.20
2023-07-18T10:57:36.963Z,10.40
2023-07-18T10:58:36.933Z,10.80
2023-07-18T10:59:36.919Z,10.60
2023-07-18T11:00:36.986Z,9.70
2023-07-18T11:01:36.977Z,9.40
2023-07-18T11:02:36.993Z,9.90
2023-07-18T11:03:37.621Z,8.90
2023-07-18T11:04:36.836Z,10.40
2023-07-18T11:05:36.850Z,9.10
2023-07-18T11:06:36.866Z,8.00
2023-07-18T11:07:36.860Z,8.70
2023-07-18T11:08:36.834Z,9.80
2023-07-18T11:09:36.779Z,9.00
2023-07-18T11:10:36.776Z,8.90
2023-07-18T11:11:36.785Z,10.40
2023-07-18T11:12:36.798Z,10.50
2023-07-18T11:13:36.783Z,8.10
2023-07-18T11:14:36.765Z,8.00
2023-07-18T11:15:36.748Z,10.20
2023-07-18T11:16:36.783Z,8.70
2023-07-18T11:17:36.792Z,10.00
2023-07-18T11:18:36.715Z,7.50
2023-07-18T11:19:36.723Z,8.90
2023-07-18T11:20:36.741Z,9.40
2023-07-18T11:21:36.712Z,8.60
2023-07-18T11:22:36.683Z,9.60
2023-07-18T11:23:36.663Z,12.80
2023-07-18T11:24:38.107Z,9.40
2023-07-18T11:25:36.697Z,8.60
2023-07-18T11:26:36.689Z,7.80
2023-07-18T11:27:37.610Z,9.70
2023-07-18T11:28:36.585Z,9.20
2023-07-18T11:29:36.590Z,7.90
2023-07-18T11:30:36.676Z,8.70
2023-07-18T11:31:41.451Z,10.30
2023-07-18T11:32:36.578Z,10.60
2023-07-18T11:33:36.536Z,7.40
2023-07-18T11:34:36.541Z,8.50
2023-07-18T11:35:36.544Z,9.40
2023-07-18T11:36:36.533Z,9.70
2023-07-18T11:37:41.799Z,8.70
2023-07-18T11:38:36.537Z,8.80
2023-07-18T11:39:36.553Z,7.80
2023-07-18T11:40:36.463Z,10.50
2023-07-18T11:41:36.489Z,8.70
2023-07-18T11:42:36.464Z,8.10
2023-07-18T11:43:36.538Z,7.50
2023-07-18T11:44:36.487Z,9.90
2023-07-18T11:45:36.505Z,9.90
2023-07-18T11:46:36.463Z,9.00
2023-07-18T11:47:36.457Z,8.90
2023-07-18T11:48:36.484Z,9.20
2023-07-18T11:49:36.742Z,10.50
2023-07-18T11:50:36.479Z,7.90
2023-07-18T11:51:37.152Z,8.90
2023-07-18T11:52:36.456Z,8.70
2023-07-18T11:53:36.431Z,9.40
2023-07-18T11:54:36.419Z,11.60
2023-07-18T11:55:37.126Z,8.60
2023-07-18T11:56:37.628Z,9.70
2023-07-18T11:57:36.316Z,9.30
2023-07-18T11:58:36.286Z,8.90
2023-07-18T11:59:36.278Z,8.90
2023-07-18T12:00:36.282Z,10.20
2023-07-18T12:01:38.707Z,8.60
2023-07-18T12:02:36.364Z,9.40
2023-07-18T12:03:36.311Z,8.30
2023-07-18T12:04:36.261Z,9.00
2023-07-18T12:05:37.092Z,9.30
2023-07-18T12:06:36.212Z,8.10
2023-07-18T12:07:36.217Z,9.10
2023-07-18T12:08:36.225Z,8.20
2023-07-18T12:09:36.193Z,8.60
2023-07-18T12:10:37.101Z,9.20
2023-07-18T12:11:36.173Z,10.20
2023-07-18T12:12:36.162Z,12.10
2023-07-18T12:13:36.124Z,9.30
2023-07-18T12:14:36.121Z,9.90
2023-07-18T12:15:38.237Z,9.60
2023-07-18T12:16:36.102Z,9.30
2023-07-18T12:17:36.114Z,11.60
2023-07-18T12:18:36.091Z,7.80
2023-07-18T12:19:36.068Z,10.40
2023-07-18T12:20:36.097Z,9.60
2023-07-18T12:21:36.105Z,10.40
2023-07-18T12:22:36.103Z,10.00
2023-07-18T12:23:36.083Z,9.20
2023-07-18T12:24:36.025Z,9.20
2023-07-18T12:25:36.046Z,8.20
2023-07-18T12:26:36.024Z,10.30
2023-07-18T12:27:36.016Z,11.40
2023-07-18T12:28:35.992Z,9.80
2023-07-18T12:29:35.991Z,8.20
2023-07-18T12:30:36.006Z,9.60
2023-07-18T12:31:36.053Z,10.70
2023-07-18T12:32:36.021Z,8.10
2023-07-18T12:33:36.040Z,8.80
2023-07-18T12:34:35.972Z,8.30
2023-07-18T12:35:35.892Z,8.20
2023-07-18T12:36:35.946Z,8.00
2023-07-18T12:37:36.608Z,9.60
2023-07-18T12:38:35.909Z,8.30
2023-07-18T12:39:35.861Z,8.80
2023-07-18T12:40:35.834Z,9.10
2023-07-18T12:41:35.830Z,10.10
2023-07-18T12:42:35.842Z,8.60
2023-07-18T12:43:35.836Z,10.40
2023-07-18T12:44:35.813Z,8.30
2023-07-18T12:45:35.812Z,8.80
2023-07-18T12:46:35.905Z,8.40
2023-07-18T12:47:35.808Z,8.60
2023-07-18T12:48:35.770Z,9.10
2023-07-18T12:50:35.774Z,8.80
2023-07-18T12:51:36.645Z,8.60
2023-07-18T12:52:35.772Z,7.70
2023-07-18T12:53:35.718Z,7.90
2023-07-18T12:54:37.110Z,9.10
2023-07-18T12:55:35.696Z,8.10
2023-07-18T12:56:35.681Z,10.10
2023-07-18T12:57:36.852Z,7.30
2023-07-18T12:58:35.687Z,8.20
2023-07-18T12:59:35.743Z,7.80
2023-07-18T13:00:35.638Z,9.00
2023-07-18T13:01:35.659Z,9.60
2023-07-18T13:02:35.781Z,7.20
2023-07-18T13:03:35.715Z,7.50
2023-07-18T13:04:35.639Z,9.70
2023-07-18T13:05:35.629Z,9.50
2023-07-18T13:06:35.595Z,10.00
2023-07-18T13:07:35.585Z,9.80
2023-07-18T13:08:35.557Z,7.70
2023-07-18T13:09:35.659Z,8.50
2023-07-18T13:10:35.544Z,8.60
2023-07-18T13:11:35.522Z,7.60
2023-07-18T13:12:35.512Z,7.70